Time,TemperatureF,DewpointF,PressureIn,WindDirection,WindDirectionDegrees,WindSpeedMPH,WindSpeedGustMPH,Humidity,HourlyPrecipIn,Conditions,Clouds,dailyrainin,SoftwareType,DateUTC
2013-07-18 00:02:00,67.0,62.0,30.35,NE,40,0.0,1.0,84,0.00,,,0.26,,2013-07-18 04:02:00,
2013-07-18 00:43:00,68.0,61.0,30.34,NE,40,0.0,1.0,78,0.00,,,0.26,,2013-07-18 04:43:00,
2013-07-18 00:52:00,69.0,62.0,30.34,NE,40,0.0,2.0,78,0.00,,,0.26,,2013-07-18 04:52:00,
2013-07-18 01:32:00,69.0,62.0,30.32,NE,40,0.0,0.0,78,0.00,,,0.26,,2013-07-18 05:32:00,
2013-07-18 01:52:00,69.0,63.0,30.31,NE,40,0.0,0.0,80,0.00,,,0.26,,2013-07-18 05:52:00,
2013-07-18 02:43:00,69.0,62.0,30.30,NE,40,0.0,1.0,79,0.00,,,0.26,,2013-07-18 06:43:00,
2013-07-18 02:52:00,68.0,62.0,30.29,NE,40,0.0,0.0,80,0.00,,,0.26,,2013-07-18 06:52:00,
2013-07-18 03:01:00,68.0,62.0,30.29,NE,40,0.0,1.0,80,0.00,,,0.26,,2013-07-18 07:01:00,
2013-07-18 03:12:00,68.0,62.0,30.29,NE,40,0.0,4.0,82,0.00,,,0.26,,2013-07-18 07:12:00,
2013-07-18 03:22:00,68.0,63.0,30.28,NE,40,0.0,2.0,83,0.00,,,0.26,,2013-07-18 07:22:00,
2013-07-18 03:32:00,68.0,63.0,30.28,NE,40,0.0,1.0,83,0.00,,,0.26,,2013-07-18 07:32:00,
2013-07-18 03:42:00,68.0,63.0,30.29,NE,40,0.0,1.0,84,0.00,,,0.26,,2013-07-18 07:42:00,
2013-07-18 03:52:00,67.0,62.0,30.29,NE,40,0.0,1.0,85,0.00,,,0.26,,2013-07-18 07:52:00,
2013-07-18 04:01:00,67.0,62.0,30.29,NE,40,0.0,1.0,85,0.00,,,0.26,,2013-07-18 08:01:00,
2013-07-18 04:11:00,67.0,63.0,30.28,NE,40,0.0,0.0,86,0.00,,,0.26,,2013-07-18 08:11:00,
2013-07-18 04:21:00,67.0,63.0,30.29,NE,40,0.0,0.0,87,0.00,,,0.26,,2013-07-18 08:21:00,
2013-07-18 04:32:00,67.0,63.0,30.29,NE,40,0.0,0.0,87,0.00,,,0.26,,2013-07-18 08:32:00,
2013-07-18 04:51:00,67.0,63.0,30.28,NNE,17,0.0,0.0,87,0.00,,,0.26,,2013-07-18 08:51:00,
2013-07-18 05:01:00,67.0,63.0,30.28,NNE,17,0.0,1.0,87,0.00,,,0.26,,2013-07-18 09:01:00,
2013-07-18 05:21:00,67.0,63.0,30.27,NNE,19,0.0,1.0,86,0.00,,,0.26,,2013-07-18 09:21:00,
2013-07-18 05:32:00,67.0,63.0,30.27,NNE,23,0.0,3.0,86,0.00,,,0.26,,2013-07-18 09:32:00,
2013-07-18 05:42:00,67.0,63.0,30.28,NNE,23,0.0,1.0,87,0.00,,,0.26,,2013-07-18 09:42:00,
2013-07-18 05:51:00,67.0,63.0,30.28,NNE,23,0.0,1.0,87,0.00,,,0.26,,2013-07-18 09:51:00,
2013-07-18 06:01:00,67.0,63.0,30.28,NNE,23,0.0,1.0,88,0.00,,,0.26,,2013-07-18 10:01:00,
2013-07-18 06:11:00,67.0,64.0,30.29,NNE,23,0.0,1.0,89,0.00,,,0.26,,2013-07-18 10:11:00,
2013-07-18 06:43:00,66.0,64.0,30.30,NNE,23,0.0,1.0,92,0.00,,,0.26,,2013-07-18 10:43:00,
2013-07-18 06:52:00,66.0,64.0,30.30,NNE,22,0.0,0.0,92,0.00,,,0.26,,2013-07-18 10:52:00,
2013-07-18 07:43:00,67.0,64.0,30.30,North,5,0.0,1.0,91,0.00,,,0.26,,2013-07-18 11:43:00,
2013-07-18 08:02:00,68.0,65.0,30.30,East,82,0.0,5.0,91,0.00,,,0.26,,2013-07-18 12:02:00,
2013-07-18 08:42:00,72.0,68.0,30.30,ENE,57,0.0,1.0,86,0.00,,,0.26,,2013-07-18 12:42:00,
2013-07-18 11:32:00,78.0,70.0,30.32,East,82,0.0,1.0,77,0.00,,,0.26,,2013-07-18 15:32:00,
2013-07-18 13:02:00,79.0,71.0,30.32,SSW,210,0.0,1.0,76,0.00,,,0.26,,2013-07-18 17:02:00,
2013-07-18 13:43:00,78.0,71.0,30.32,SE,145,0.0,1.0,80,0.00,,,0.26,,2013-07-18 17:43:00,
2013-07-18 14:43:00,79.0,71.0,30.30,SSE,157,1.0,4.0,77,0.00,,,0.26,,2013-07-18 18:43:00,
2013-07-18 15:43:00,76.0,70.0,30.27,SW,214,1.0,7.0,81,0.00,,,0.26,,2013-07-18 19:43:00,
2013-07-18 16:02:00,75.0,69.0,30.27,South,171,0.0,2.0,82,0.00,,,0.26,,2013-07-18 20:02:00,
2013-07-18 16:52:00,76.0,71.0,30.25,South,190,0.0,2.0,84,0.00,,,0.07,,2013-07-18 20:52:00,
2013-07-18 17:01:00,76.0,70.0,30.25,South,188,1.0,6.0,82,0.00,,,0.07,,2013-07-18 21:01:00,
2013-07-18 17:11:00,76.0,72.0,30.25,South,179,0.0,2.0,87,0.00,,,0.07,,2013-07-18 21:11:00,
2013-07-18 17:22:00,76.0,70.0,30.25,South,191,0.0,4.0,83,0.00,,,0.07,,2013-07-18 21:22:00,
2013-07-18 17:32:00,76.0,71.0,30.25,South,191,0.0,1.0,84,0.00,,,0.07,,2013-07-18 21:32:00,
2013-07-18 17:43:00,75.0,70.0,30.25,South,191,0.0,3.0,85,0.00,,,0.07,,2013-07-18 21:43:00,
2013-07-18 17:52:00,75.0,70.0,30.24,South,171,0.0,4.0,85,0.00,,,0.07,,2013-07-18 21:52:00,
2013-07-18 18:01:00,75.0,70.0,30.24,South,170,0.0,1.0,84,0.00,,,0.07,,2013-07-18 22:01:00,
2013-07-18 18:11:00,75.0,70.0,30.24,South,170,0.0,0.0,84,0.00,,,0.07,,2013-07-18 22:11:00,
2013-07-18 18:43:00,73.0,68.0,30.24,South,170,0.0,0.0,85,0.00,,,0.06,,2013-07-18 22:43:00,
2013-07-18 19:42:00,72.0,69.0,30.24,SSE,165,0.0,0.0,89,0.00,,,0.02,,2013-07-18 23:42:00,
2013-07-18 19:52:00,72.0,69.0,30.24,SSE,165,0.0,0.0,90,0.00,,,0.02,,2013-07-18 23:52:00,
2013-07-18 20:01:00,71.0,68.0,30.24,SSE,165,0.0,0.0,91,0.00,,,0.02,,2013-07-19 00:01:00,
2013-07-18 20:11:00,71.0,68.0,30.24,SSE,165,0.0,1.0,90,0.00,,,0.02,,2013-07-19 00:11:00,
2013-07-18 20:22:00,71.0,68.0,30.24,SSE,165,0.0,1.0,91,0.00,,,0.00,,2013-07-19 00:22:00,
2013-07-18 20:32:00,70.0,68.0,30.24,SSE,165,0.0,1.0,92,0.00,,,0.00,,2013-07-19 00:32:00,
2013-07-18 20:43:00,70.0,68.0,30.24,SSE,165,0.0,0.0,93,0.00,,,0.00,,2013-07-19 00:43:00,
2013-07-18 20:52:00,70.0,68.0,30.24,SSE,165,0.0,1.0,94,0.00,,,0.00,,2013-07-19 00:52:00,
2013-07-18 21:01:00,70.0,68.0,30.24,SSE,165,0.0,0.0,95,0.00,,,0.00,,2013-07-19 01:01:00,
2013-07-18 21:11:00,70.0,68.0,30.24,SSE,165,0.0,1.0,95,0.00,,,0.00,,2013-07-19 01:11:00,